createdAt,value
2019-03-13T00:01:07.511Z,3.80
2019-03-13T00:03:33.996Z,3.53
2019-03-13T00:06:00.752Z,3.57
2019-03-13T00:08:27.260Z,4.23
2019-03-13T00:10:53.978Z,4.87
2019-03-13T00:13:20.622Z,4.20
2019-03-13T00:15:49.780Z,4.20
2019-03-13T00:18:15.805Z,3.97
2019-03-13T00:20:42.358Z,4.50
2019-03-13T00:23:08.870Z,4.33
2019-03-13T00:25:35.440Z,4.40
2019-03-13T00:28:02.185Z,4.77
2019-03-13T00:30:28.794Z,4.77
2019-03-13T00:32:55.384Z,5.03
2019-03-13T00:35:21.926Z,5.20
2019-03-13T00:37:48.229Z,5.50
2019-03-13T00:40:14.772Z,4.77
2019-03-13T00:42:41.298Z,5.00
2019-03-13T00:45:10.198Z,5.10
2019-03-13T00:47:36.824Z,5.50
2019-03-13T00:50:07.374Z,5.17
2019-03-13T00:52:33.939Z,5.20
2019-03-13T00:55:00.554Z,5.77
2019-03-13T00:57:27.159Z,5.50
2019-03-13T00:59:53.581Z,4.97
2019-03-13T01:02:34.181Z,5.37
2019-03-13T01:05:02.495Z,5.43
2019-03-13T01:07:28.915Z,5.43
2019-03-13T01:09:55.330Z,5.13
2019-03-13T01:12:23.701Z,5.00
2019-03-13T01:14:50.269Z,5.20
2019-03-13T01:17:16.831Z,5.10
2019-03-13T01:19:43.211Z,4.70
2019-03-13T01:22:09.941Z,4.87
2019-03-13T01:24:36.532Z,4.80
2019-03-13T01:27:03.130Z,4.87
2019-03-13T01:29:29.600Z,4.60
2019-03-13T01:32:13.322Z,4.13
2019-03-13T01:34:41.870Z,3.90
2019-03-13T01:37:08.317Z,4.00
2019-03-13T01:39:34.644Z,3.83
2019-03-13T01:42:01.076Z,4.10
2019-03-13T01:44:27.480Z,3.40
2019-03-13T01:46:53.981Z,3.67
2019-03-13T01:49:20.515Z,3.30
2019-03-13T01:51:46.935Z,3.87
2019-03-13T01:54:13.669Z,3.33
2019-03-13T01:56:40.062Z,3.10
2019-03-13T01:59:06.381Z,3.00
2019-03-13T02:01:32.769Z,3.10
2019-03-13T02:03:59.376Z,3.10
2019-03-13T02:06:25.940Z,2.70
2019-03-13T02:08:52.331Z,2.97
2019-03-13T02:11:18.843Z,2.83
2019-03-13T02:13:45.292Z,2.90
2019-03-13T02:16:11.706Z,2.50
2019-03-13T02:18:38.240Z,2.43
2019-03-13T02:21:04.741Z,2.60
2019-03-13T02:23:31.173Z,2.50
2019-03-13T02:25:57.683Z,2.13
2019-03-13T02:28:24.171Z,2.87
2019-03-13T02:30:50.570Z,2.60
2019-03-13T02:33:17.127Z,2.07
2019-03-13T02:35:43.533Z,2.27
2019-03-13T02:38:11.846Z,2.10
2019-03-13T02:40:38.281Z,2.30
2019-03-13T02:43:04.639Z,2.63
2019-03-13T02:45:31.062Z,2.43
2019-03-13T02:47:57.470Z,2.37
2019-03-13T02:50:23.994Z,2.60
2019-03-13T02:52:50.381Z,2.20
2019-03-13T02:55:16.865Z,2.63
2019-03-13T02:57:43.251Z,2.37
2019-03-13T03:00:17.729Z,2.20
2019-03-13T03:02:48.925Z,3.03
2019-03-13T03:05:15.642Z,2.50
2019-03-13T03:07:42.241Z,2.93
2019-03-13T03:10:11.356Z,2.50
2019-03-13T03:12:37.812Z,2.43
2019-03-13T03:15:13.163Z,2.30
2019-03-13T03:17:39.578Z,3.27
2019-03-13T03:20:13.037Z,2.27
2019-03-13T03:22:39.520Z,2.57
2019-03-13T03:25:10.212Z,2.87
2019-03-13T03:27:36.656Z,3.20
2019-03-13T03:30:08.485Z,2.77
2019-03-13T03:32:34.887Z,2.97
2019-03-13T03:35:01.775Z,3.17
2019-03-13T03:37:28.526Z,2.40
2019-03-13T03:39:55.120Z,2.83
2019-03-13T03:42:21.847Z,2.93
2019-03-13T03:44:48.137Z,2.90
2019-03-13T03:47:14.556Z,4.83
2019-03-13T03:49:41.176Z,2.70
2019-03-13T03:52:07.699Z,3.10
2019-03-13T03:54:34.207Z,2.90
2019-03-13T03:57:00.716Z,3.10
2019-03-13T03:59:27.340Z,3.10
2019-03-13T04:01:53.701Z,3.67
2019-03-13T04:04:20.179Z,2.63
2019-03-13T04:06:47.013Z,4.13
2019-03-13T04:09:13.532Z,2.53
2019-03-13T04:11:39.948Z,2.57
2019-03-13T04:14:06.492Z,3.50
2019-03-13T04:16:33.101Z,3.67
2019-03-13T04:18:59.497Z,2.80
2019-03-13T04:21:25.938Z,2.70
2019-03-13T04:23:52.572Z,3.63
2019-03-13T04:26:19.182Z,3.43
2019-03-13T04:28:45.757Z,3.23
2019-03-13T04:31:12.229Z,3.40
2019-03-13T04:33:38.549Z,3.17
2019-03-13T04:36:04.907Z,3.67
2019-03-13T04:38:31.332Z,3.73
2019-03-13T04:40:57.713Z,3.40
2019-03-13T04:43:24.151Z,3.37
2019-03-13T04:45:50.543Z,3.43
2019-03-13T04:48:16.955Z,3.20
2019-03-13T04:50:43.583Z,3.73
2019-03-13T04:53:10.090Z,3.17
2019-03-13T04:55:36.667Z,3.40
2019-03-13T04:58:03.178Z,3.97
2019-03-13T05:00:29.831Z,3.10
2019-03-13T05:02:56.262Z,3.00
2019-03-13T05:05:42.750Z,2.90
2019-03-13T05:08:20.358Z,3.80
2019-03-13T05:10:46.927Z,3.50
2019-03-13T05:13:13.264Z,4.43
2019-03-13T05:15:39.779Z,3.47
2019-03-13T05:18:06.209Z,3.50
2019-03-13T05:20:32.495Z,3.83
2019-03-13T05:22:58.879Z,3.87
2019-03-13T05:25:25.340Z,4.23
2019-03-13T05:27:51.846Z,3.80
2019-03-13T05:30:18.346Z,3.53
2019-03-13T05:32:44.835Z,3.27
2019-03-13T05:35:11.467Z,3.57
2019-03-13T05:37:37.767Z,3.60
2019-03-13T05:40:10.338Z,3.20
2019-03-13T05:42:36.947Z,3.57
2019-03-13T05:45:08.321Z,3.80
2019-03-13T05:47:34.551Z,3.57
2019-03-13T05:50:01.152Z,3.83
2019-03-13T05:52:27.511Z,3.43
2019-03-13T05:54:53.940Z,4.10
2019-03-13T05:57:20.350Z,3.47
2019-03-13T05:59:46.861Z,4.07
2019-03-13T06:02:13.461Z,4.40
2019-03-13T06:04:39.876Z,3.50
2019-03-13T06:07:06.213Z,3.23
2019-03-13T06:09:32.737Z,3.67
2019-03-13T06:11:59.152Z,3.90
2019-03-13T06:14:25.757Z,3.80
2019-03-13T06:16:52.145Z,3.87
2019-03-13T06:19:18.529Z,3.67
2019-03-13T06:21:44.870Z,4.67
2019-03-13T06:24:11.305Z,4.07
2019-03-13T06:26:37.619Z,3.83
2019-03-13T06:29:04.030Z,3.67
2019-03-13T06:31:30.460Z,3.50
2019-03-13T06:33:56.963Z,3.77
2019-03-13T06:36:23.306Z,4.10
2019-03-13T06:38:49.812Z,4.07
2019-03-13T06:41:16.290Z,4.40
2019-03-13T06:43:42.739Z,3.70
2019-03-13T06:46:09.119Z,3.50
2019-03-13T06:48:35.537Z,3.67
2019-03-13T06:51:02.119Z,3.53
2019-03-13T06:53:28.544Z,4.07
2019-03-13T06:55:54.833Z,3.40
2019-03-13T06:58:23.031Z,3.60
2019-03-13T07:00:57.361Z,3.70
2019-03-13T07:03:28.667Z,4.40
2019-03-13T07:06:15.186Z,4.07
2019-03-13T07:08:46.038Z,4.20
2019-03-13T07:11:29.391Z,3.97
2019-03-13T07:13:57.961Z,4.00
2019-03-13T07:16:32.002Z,3.97
2019-03-13T07:19:00.242Z,3.90
2019-03-13T07:21:45.303Z,3.73
2019-03-13T07:24:22.457Z,3.33
2019-03-13T07:26:59.677Z,3.80
2019-03-13T07:29:34.111Z,3.90
2019-03-13T07:32:08.257Z,3.50
2019-03-13T07:34:36.693Z,4.10
2019-03-13T07:37:10.723Z,3.60
2019-03-13T07:39:44.894Z,3.77
2019-03-13T07:42:28.506Z,4.30
2019-03-13T07:45:06.062Z,3.70
2019-03-13T07:47:43.461Z,4.73
2019-03-13T07:50:28.682Z,3.67
2019-03-13T07:53:05.986Z,3.67
2019-03-13T07:55:37.298Z,4.00
2019-03-13T07:58:22.339Z,4.10
2019-03-13T08:01:09.422Z,3.97
2019-03-13T08:03:54.593Z,3.47
2019-03-13T08:06:23.137Z,3.67
2019-03-13T08:08:54.475Z,3.23
2019-03-13T08:11:25.820Z,4.20
2019-03-13T08:14:03.212Z,3.77
2019-03-13T08:16:40.382Z,3.50
2019-03-13T08:19:24.099Z,3.87
2019-03-13T08:22:08.017Z,3.40
2019-03-13T08:24:36.309Z,3.67
2019-03-13T08:27:04.832Z,4.03
2019-03-13T08:29:41.824Z,4.00
2019-03-13T08:32:19.049Z,3.63
2019-03-13T08:34:50.361Z,3.70
2019-03-13T08:37:21.783Z,3.50
2019-03-13T08:40:06.941Z,3.63
2019-03-13T08:42:38.036Z,3.47
2019-03-13T08:45:30.860Z,3.20
2019-03-13T08:48:02.354Z,3.13
2019-03-13T08:50:30.748Z,3.63
2019-03-13T08:52:59.105Z,4.20
2019-03-13T08:55:27.420Z,3.47
2019-03-13T08:57:56.008Z,3.40
2019-03-13T09:00:27.101Z,3.17
2019-03-13T09:02:55.557Z,3.57
2019-03-13T09:05:40.623Z,2.93
2019-03-13T09:08:09.134Z,3.00
2019-03-13T09:10:37.546Z,3.10
2019-03-13T09:13:08.876Z,2.37
2019-03-13T09:15:37.350Z,2.47
2019-03-13T09:18:23.983Z,3.00
2019-03-13T09:20:55.286Z,3.20
2019-03-13T09:23:23.725Z,3.43
2019-03-13T09:25:52.141Z,5.13
2019-03-13T09:28:20.524Z,2.90
2019-03-13T09:31:01.092Z,3.80
2019-03-13T09:33:29.432Z,3.73
2019-03-13T09:36:13.136Z,2.93
2019-03-13T09:38:44.347Z,3.87
2019-03-13T09:41:29.128Z,3.13
2019-03-13T09:43:59.896Z,3.60
2019-03-13T09:46:45.928Z,3.33
2019-03-13T09:49:31.198Z,3.40
2019-03-13T09:51:59.494Z,3.17
2019-03-13T09:54:30.620Z,2.90
2019-03-13T09:57:15.522Z,2.60
2019-03-13T09:59:46.829Z,3.13
2019-03-13T10:02:24.387Z,4.20
2019-03-13T10:05:08.174Z,3.67
2019-03-13T10:07:42.266Z,3.33
2019-03-13T10:10:16.961Z,3.67
2019-03-13T10:12:47.958Z,3.80
2019-03-13T10:15:16.534Z,3.50
2019-03-13T10:17:50.590Z,3.23
2019-03-13T10:20:34.020Z,3.17
2019-03-13T10:23:08.302Z,3.57
2019-03-13T10:25:39.368Z,3.83
2019-03-13T10:28:08.175Z,3.00
2019-03-13T10:30:45.568Z,3.40
2019-03-13T10:33:14.096Z,2.80
2019-03-13T10:35:59.066Z,3.67
2019-03-13T10:38:33.238Z,3.57
2019-03-13T10:41:01.841Z,3.73
2019-03-13T10:43:35.895Z,2.90
2019-03-13T10:46:13.275Z,3.03
2019-03-13T10:48:53.382Z,3.50
2019-03-13T10:51:21.087Z,3.43
2019-03-13T10:53:49.595Z,3.00
2019-03-13T10:56:34.894Z,3.10
2019-03-13T10:59:06.076Z,3.33
2019-03-13T11:01:37.188Z,3.10
2019-03-13T11:04:08.216Z,3.60
2019-03-13T11:06:54.931Z,4.13
2019-03-13T11:09:27.575Z,3.37
2019-03-13T11:11:58.611Z,3.10
2019-03-13T11:14:45.327Z,3.27
2019-03-13T11:17:19.844Z,2.93
2019-03-13T11:19:48.249Z,3.33
2019-03-13T11:22:19.357Z,3.23
2019-03-13T11:24:47.745Z,2.93
2019-03-13T11:27:22.107Z,3.37
2019-03-13T11:30:08.899Z,3.00
2019-03-13T11:32:43.388Z,3.70
2019-03-13T11:35:12.373Z,3.13
2019-03-13T11:37:53.061Z,2.93
2019-03-13T11:40:21.487Z,3.13
2019-03-13T11:43:08.228Z,3.30
2019-03-13T11:45:53.657Z,2.80
2019-03-13T11:48:31.209Z,3.10
2019-03-13T11:50:59.600Z,2.90
2019-03-13T11:53:31.072Z,3.50
2019-03-13T11:56:16.392Z,3.03
2019-03-13T11:58:44.960Z,2.80
2019-03-13T12:01:19.539Z,3.03
2019-03-13T12:03:59.957Z,3.03
2019-03-13T12:06:28.546Z,3.03
2019-03-13T12:09:02.918Z,3.00
2019-03-13T12:11:31.884Z,3.30
2019-03-13T12:14:17.132Z,3.17
2019-03-13T12:16:51.250Z,2.80
2019-03-13T12:19:28.780Z,2.47
2019-03-13T12:22:03.087Z,3.10
2019-03-13T12:24:31.363Z,3.20
2019-03-13T12:27:05.629Z,3.13
2019-03-13T12:29:40.218Z,3.57
2019-03-13T12:32:25.297Z,3.30
2019-03-13T12:34:59.636Z,3.47
2019-03-13T12:37:30.767Z,3.23
2019-03-13T12:40:15.715Z,3.37
2019-03-13T12:43:00.639Z,3.20
2019-03-13T12:45:29.109Z,3.90
2019-03-13T12:48:16.537Z,3.23
2019-03-13T12:50:40.190Z,3.60
2019-03-13T12:53:08.687Z,3.33
2019-03-13T12:55:46.122Z,3.00
2019-03-13T12:58:20.718Z,3.13
2019-03-13T13:01:04.073Z,3.03
2019-03-13T13:03:32.443Z,2.67
2019-03-13T13:06:15.857Z,2.67
2019-03-13T13:09:01.056Z,2.90
2019-03-13T13:11:47.804Z,2.77
2019-03-13T13:14:22.141Z,2.57
2019-03-13T13:16:50.634Z,2.93
2019-03-13T13:19:17.136Z,2.93
2019-03-13T13:21:43.710Z,2.50
2019-03-13T13:24:10.378Z,3.50
2019-03-13T13:26:37.127Z,2.90
2019-03-13T13:29:03.688Z,2.67
2019-03-13T13:31:30.296Z,2.90
2019-03-13T13:33:57.069Z,3.37
2019-03-13T13:36:26.602Z,2.90
2019-03-13T13:38:52.423Z,2.50
2019-03-13T13:41:18.837Z,3.10
2019-03-13T13:43:45.535Z,2.63
2019-03-13T13:46:20.002Z,3.23
2019-03-13T13:48:46.541Z,3.73
2019-03-13T13:51:13.249Z,3.27
2019-03-13T13:53:39.972Z,3.00
2019-03-13T13:56:06.529Z,3.37
2019-03-13T13:58:33.459Z,3.10
2019-03-13T14:01:00.013Z,3.13
2019-03-13T14:03:26.674Z,3.03
2019-03-13T14:05:53.296Z,3.73
2019-03-13T14:08:19.959Z,3.40
2019-03-13T14:10:46.606Z,2.63
2019-03-13T14:13:13.262Z,2.80
2019-03-13T14:15:39.922Z,3.37
2019-03-13T14:18:06.547Z,2.30
2019-03-13T14:20:33.138Z,2.43
2019-03-13T14:22:59.462Z,3.00
2019-03-13T14:25:25.952Z,2.63
2019-03-13T14:27:52.378Z,3.07
2019-03-13T14:30:21.174Z,3.10
2019-03-13T14:32:47.911Z,2.73
2019-03-13T14:35:14.525Z,3.20
2019-03-13T14:37:41.106Z,3.30
2019-03-13T14:40:14.834Z,3.33
2019-03-13T14:42:41.436Z,4.03
2019-03-13T14:45:14.951Z,3.70
2019-03-13T14:47:41.386Z,4.27
2019-03-13T14:50:14.214Z,4.23
2019-03-13T14:52:40.777Z,4.40
2019-03-13T14:55:10.424Z,5.20
2019-03-13T14:57:37.119Z,4.40
2019-03-13T15:00:20.050Z,4.57
2019-03-13T15:02:46.928Z,4.30
2019-03-13T15:05:13.712Z,4.40
2019-03-13T15:07:40.339Z,4.17
2019-03-13T15:10:18.520Z,5.37
2019-03-13T15:12:45.170Z,3.50
2019-03-13T15:15:18.294Z,3.00
2019-03-13T15:17:47.625Z,3.23
2019-03-13T15:20:27.346Z,4.10
2019-03-13T15:22:54.030Z,3.93
2019-03-13T15:25:20.674Z,4.13
2019-03-13T15:27:47.351Z,3.07
2019-03-13T15:30:22.408Z,2.80
2019-03-13T15:32:49.139Z,2.40
2019-03-13T15:35:15.857Z,2.77
2019-03-13T15:37:42.506Z,2.90
2019-03-13T15:40:16.637Z,2.87
2019-03-13T15:42:43.482Z,2.50
2019-03-13T15:45:19.510Z,2.10
2019-03-13T15:47:46.277Z,2.93
2019-03-13T15:50:15.053Z,2.50
2019-03-13T15:52:41.702Z,2.30
2019-03-13T15:55:12.488Z,2.33
2019-03-13T15:57:39.113Z,2.50
2019-03-13T16:00:24.425Z,2.47
2019-03-13T16:02:51.391Z,2.60
2019-03-13T16:05:18.858Z,2.50
2019-03-13T16:07:45.780Z,2.60
2019-03-13T16:10:15.558Z,2.97
2019-03-13T16:12:42.908Z,2.63
2019-03-13T16:15:18.956Z,2.53
2019-03-13T16:17:45.610Z,2.80
2019-03-13T16:20:14.098Z,2.50
2019-03-13T16:22:42.346Z,2.80
2019-03-13T16:25:10.006Z,2.80
2019-03-13T16:27:37.046Z,2.53
2019-03-13T16:30:24.912Z,2.80
2019-03-13T16:32:51.711Z,2.27
2019-03-13T16:35:18.503Z,3.07
2019-03-13T16:37:45.422Z,2.83
2019-03-13T16:40:19.549Z,3.80
2019-03-13T16:42:46.306Z,2.60
2019-03-13T16:45:18.377Z,3.00
2019-03-13T16:47:45.427Z,3.17
2019-03-13T16:50:19.465Z,3.60
2019-03-13T16:52:46.354Z,3.83
2019-03-13T16:55:19.242Z,4.00
2019-03-13T16:57:45.998Z,4.07
2019-03-13T17:00:31.899Z,3.80
2019-03-13T17:02:58.987Z,3.77
2019-03-13T17:05:26.216Z,3.43
2019-03-13T17:07:53.233Z,3.60
2019-03-13T17:10:22.825Z,4.33
2019-03-13T17:12:49.602Z,4.40
2019-03-13T17:15:21.254Z,4.07
2019-03-13T17:17:48.320Z,4.00
2019-03-13T17:20:40.975Z,4.23
2019-03-13T17:23:07.621Z,3.67
2019-03-13T17:25:36.370Z,3.63
2019-03-13T17:28:05.197Z,3.40
2019-03-13T17:30:31.958Z,3.40
2019-03-13T17:32:59.509Z,3.40
2019-03-13T17:35:26.171Z,3.77
2019-03-13T17:37:52.968Z,3.43
2019-03-13T17:40:26.423Z,3.20
2019-03-13T17:42:53.725Z,3.20
2019-03-13T17:45:22.502Z,3.63
2019-03-13T17:47:49.553Z,3.87
2019-03-13T17:50:18.367Z,2.90
2019-03-13T17:52:45.475Z,3.13
2019-03-13T17:55:14.838Z,3.53
2019-03-13T17:57:41.901Z,3.17
2019-03-13T18:00:54.579Z,3.73
2019-03-13T18:03:23.210Z,3.50
2019-03-13T18:05:50.202Z,4.40
2019-03-13T18:08:16.874Z,4.00
2019-03-13T18:10:43.499Z,4.30
2019-03-13T18:13:10.229Z,4.37
2019-03-13T18:15:37.375Z,5.03
2019-03-13T18:18:04.095Z,5.30
2019-03-13T18:20:30.903Z,4.90
2019-03-13T18:22:57.644Z,5.80
2019-03-13T18:25:24.338Z,5.53
2019-03-13T18:27:50.967Z,5.57
2019-03-13T18:30:27.258Z,5.40
2019-03-13T18:32:54.143Z,5.40
2019-03-13T18:35:20.843Z,5.73
2019-03-13T18:37:47.948Z,6.13
2019-03-13T18:40:24.257Z,5.43
2019-03-13T18:42:51.256Z,5.80
2019-03-13T18:45:27.376Z,6.20
2019-03-13T18:47:54.654Z,6.00
2019-03-13T18:50:21.602Z,5.30
2019-03-13T18:52:48.419Z,5.40
2019-03-13T18:55:24.084Z,5.70
2019-03-13T18:57:51.012Z,6.17
2019-03-13T19:00:27.650Z,5.30
2019-03-13T19:02:54.400Z,5.20
2019-03-13T19:05:21.074Z,5.63
2019-03-13T19:07:48.445Z,4.90
2019-03-13T19:10:24.937Z,6.23
2019-03-13T19:12:51.695Z,5.03
2019-03-13T19:15:21.133Z,4.93
2019-03-13T19:17:47.848Z,4.43
2019-03-13T19:20:21.510Z,5.30
2019-03-13T19:22:48.425Z,5.83
2019-03-13T19:25:15.702Z,5.30
2019-03-13T19:27:42.689Z,5.77
2019-03-13T19:30:22.337Z,5.47
2019-03-13T19:32:49.334Z,5.20
2019-03-13T19:35:16.099Z,5.80
2019-03-13T19:37:42.789Z,6.10
2019-03-13T19:40:14.046Z,6.10
2019-03-13T19:42:40.897Z,5.07
2019-03-13T19:45:18.406Z,5.63
2019-03-13T19:47:45.441Z,5.20
2019-03-13T19:50:12.417Z,5.83
2019-03-13T19:52:39.230Z,5.30
2019-03-13T19:55:11.970Z,5.67
2019-03-13T19:57:38.772Z,5.50
2019-03-13T20:00:22.060Z,5.80
2019-03-13T20:02:59.461Z,5.73
2019-03-13T20:05:17.687Z,4.80
2019-03-13T20:07:44.791Z,6.23
2019-03-13T20:10:21.529Z,6.10
2019-03-13T20:12:48.201Z,6.13
2019-03-13T20:15:21.964Z,5.70
2019-03-13T20:17:48.623Z,4.90
2019-03-13T20:20:18.144Z,6.50
2019-03-13T20:22:45.374Z,5.93
2019-03-13T20:25:17.472Z,5.97
2019-03-13T20:27:43.386Z,5.27
2019-03-13T20:30:18.940Z,5.50
2019-03-13T20:32:49.453Z,5.77
2019-03-13T20:35:16.261Z,5.60
2019-03-13T20:37:43.431Z,5.83
2019-03-13T20:40:18.048Z,5.30
2019-03-13T20:42:44.945Z,5.30
2019-03-13T20:45:18.376Z,5.40
2019-03-13T20:47:45.109Z,5.83
2019-03-13T20:50:12.813Z,5.27
2019-03-13T20:52:39.716Z,4.40
2019-03-13T20:55:11.727Z,4.80
2019-03-13T20:57:38.610Z,4.87
2019-03-13T21:00:10.574Z,4.27
2019-03-13T21:02:37.364Z,4.63
2019-03-13T21:05:04.980Z,4.40
2019-03-13T21:07:31.680Z,4.17
2019-03-13T21:09:58.640Z,4.13
2019-03-13T21:12:25.569Z,5.03
2019-03-13T21:14:52.267Z,4.27
2019-03-13T21:17:19.274Z,3.80
2019-03-13T21:19:46.175Z,3.90
2019-03-13T21:22:12.710Z,4.07
2019-03-13T21:24:39.703Z,4.67
2019-03-13T21:27:06.415Z,3.93
2019-03-13T21:29:33.178Z,4.00
2019-03-13T21:32:00.105Z,3.57
2019-03-13T21:34:28.431Z,4.87
2019-03-13T21:36:55.804Z,4.70
2019-03-13T21:39:22.702Z,4.13
2019-03-13T21:41:50.141Z,4.13
2019-03-13T21:44:16.957Z,4.53
2019-03-13T21:46:43.908Z,4.83
2019-03-13T21:49:10.863Z,4.17
2019-03-13T21:51:37.744Z,4.30
2019-03-13T21:54:04.709Z,4.30
2019-03-13T21:56:31.609Z,4.10
2019-03-13T21:58:58.401Z,4.70
2019-03-13T22:01:25.174Z,4.97
2019-03-13T22:03:51.977Z,4.77
2019-03-13T22:06:27.973Z,5.07
2019-03-13T22:08:47.018Z,5.23
2019-03-13T22:11:13.654Z,5.00
2019-03-13T22:13:40.565Z,5.53
2019-03-13T22:16:07.355Z,5.13
2019-03-13T22:18:34.170Z,5.43
2019-03-13T22:21:00.617Z,5.97
2019-03-13T22:23:27.285Z,5.20
2019-03-13T22:25:53.916Z,4.80
2019-03-13T22:28:20.509Z,4.67
2019-03-13T22:30:47.050Z,5.00
2019-03-13T22:33:13.704Z,4.37
2019-03-13T22:35:40.344Z,4.93
2019-03-13T22:38:06.925Z,4.63
2019-03-13T22:40:33.538Z,4.67
2019-03-13T22:43:00.278Z,4.97
2019-03-13T22:45:27.184Z,5.10
2019-03-13T22:47:53.914Z,4.30
2019-03-13T22:50:22.459Z,4.13
2019-03-13T22:52:49.101Z,4.67
2019-03-13T22:55:15.927Z,4.87
2019-03-13T22:57:42.549Z,4.40
2019-03-13T23:00:40.572Z,4.40
2019-03-13T23:03:07.406Z,4.80
2019-03-13T23:05:36.081Z,4.27
2019-03-13T23:08:02.559Z,4.80
2019-03-13T23:10:33.495Z,4.30
2019-03-13T23:13:00.109Z,4.47
2019-03-13T23:15:26.944Z,4.30
2019-03-13T23:17:53.613Z,3.67
2019-03-13T23:20:20.384Z,4.00
2019-03-13T23:22:46.901Z,4.03
2019-03-13T23:25:13.338Z,4.30
2019-03-13T23:27:39.974Z,3.73
2019-03-13T23:30:09.256Z,4.20
2019-03-13T23:32:35.864Z,4.13
2019-03-13T23:35:04.471Z,3.90
2019-03-13T23:37:31.293Z,3.40
2019-03-13T23:39:57.738Z,3.87
2019-03-13T23:42:24.089Z,4.20
2019-03-13T23:44:50.649Z,3.60
2019-03-13T23:47:17.174Z,4.23
2019-03-13T23:49:43.693Z,4.10
2019-03-13T23:52:10.170Z,4.23
2019-03-13T23:54:36.683Z,3.93
2019-03-13T23:57:03.184Z,3.87
2019-03-13T23:59:29.625Z,4.37
